首页
METAR-TAF:

METAR-TAF

机场 :

阿讷西, 法国

纬度: 45-55-45N, 经度: 006-05-56E, 海拔: 463米

当前天气观测

该预报发布于33分钟前的12:30 UTC
风速3节,风向多变
温度 5°C
湿度 87%
气压 1020 hPa
能見度: 9000
散云层高于3300英尺
多云层高于3900英尺
阴天层高于4500英尺
小雨

METAR: LFLP 261230Z AUTO VRB03KT 9000 -RA SCT033 BKN039 OVC045 05/03 Q1020 TEMPO 4000 -SHRA FEW025TCU BKN030

时间: 14:03 (13:03 UTC)

预报

该预报发布于5小时和3分钟前的08:00 UTC
预报有效从26日的 09点(UTC)到 27日的 09点(UTC)
风速2节,风向多变
能见度10公里或以上
多云层高于5000英尺
短暂存在
从 26日的 09点(UTC)到 26日的 24点(UTC)
能見度: 4000
少量云层高于2500英尺, 塔状积云.
多云层高于3000英尺
小阵雨
成为
从 27日的 01点(UTC)到 27日的 03点(UTC)
几率 30% :
短暂存在
从 27日的 03点(UTC)到 27日的 06点(UTC)
能見度: 2000
轻雾

TAF: LFLP 260800Z 2609/2709 VRB02KT 9999 BKN050 TEMPO 2609/2624 4000 -SHRA FEW025TCU BKN030 BECMG 2701/2703 NSC PROB30 TEMPO 2703/2706 2000 BR

超过4000个机场的气象观测和天气预报(METAR&TAF报告)。

可查询的气象台以黄色和红色小点在地图上表示。

将鼠标移到小点上方,可查看气象台名称。

然后点击查看天气观测和预报。

如需切换地图:点击带黑十字的绿色按钮放大地图;点击带横线的绿色按钮缩小地图;或者点击绿色箭头查看邻近地区的地图。


METAR-TAF: